Time;durP1;ratioP1;P1;durP2;ratioP2;P2;SDS_P1;SDS_P2;PMS_P1;PMS_P2;Temp;Humidity;BMP_temperature;BMP_pressure;BME280_temperature;BME280_humidity;BME280_pressure;Samples;Min_cycle;Max_cycle;Signal;HPM_P1;HPM_P2
2023/06/22 00:01:49;;;;;;;;;0.50;0.25;;;;;;;;4997478;28;45446;-84
2023/06/22 00:04:15;;;;;;;;;2.00;0.67;;;;;;;;4997158;28;45471;-83
2023/06/22 00:06:40;;;;;;;;;1.00;1.00;;;;;;;;4997088;28;47256;-82
2023/06/22 00:09:06;;;;;;;;;1.00;1.00;;;;;;;;4979307;28;45394;-83
2023/06/22 00:11:33;;;;;;;;;0.50;0.00;;;;;;;;4996890;28;45412;-85
2023/06/22 00:13:58;;;;;;;;;2.00;1.00;;;;;;;;5016904;28;45277;-84
2023/06/22 00:16:23;;;;;;;;;2.00;1.00;;;;;;;;5018914;28;46404;-84
2023/06/22 00:18:48;;;;;;;;;1.00;1.00;;;;;;;;5036828;28;45499;-84
2023/06/22 00:21:14;;;;;;;;;2.00;0.33;;;;;;;;5037049;28;45281;-84
2023/06/22 00:23:39;;;;;;;;;2.00;1.00;;;;;;;;5023188;28;45380;-83
2023/06/22 00:26:04;;;;;;;;;0.33;0.00;;;;;;;;4998403;28;47064;-84
2023/06/22 00:28:30;;;;;;;;;1.00;1.00;;;;;;;;5016217;28;45315;-82
2023/06/22 00:30:55;;;;;;;;;1.00;1.00;;;;;;;;4997802;28;45525;-83
2023/06/22 00:33:20;;;;;;;;;0.33;0.33;;;;;;;;5016754;28;45357;-82
2023/06/22 00:35:45;;;;;;;;;1.00;1.00;;;;;;;;5015927;28;45373;-83
2023/06/22 00:38:11;;;;;;;;;1.00;1.00;;;;;;;;5016043;28;45573;-83
2023/06/22 00:40:36;;;;;;;;;1.00;1.00;;;;;;;;5016400;28;45299;-83
2023/06/22 00:43:02;;;;;;;;;1.00;1.00;;;;;;;;5016318;28;45374;-83
2023/06/22 00:45:27;;;;;;;;;1.00;1.00;;;;;;;;4998647;28;48323;-83
2023/06/22 00:47:53;;;;;;;;;1.00;1.00;;;;;;;;5016352;28;45282;-84
2023/06/22 00:50:20;;;;;;;;;0.00;0.00;;;;;;;;5016678;28;45357;-84
2023/06/22 00:52:47;;;;;;;;;1.25;1.00;;;;;;;;5015390;28;45375;-84
2023/06/22 00:55:12;;;;;;;;;1.00;1.00;;;;;;;;5017291;28;46599;-83
2023/06/22 00:57:37;;;;;;;;;1.00;0.00;;;;;;;;5022952;28;45448;-82
2023/06/22 01:00:05;;;;;;;;;2.00;2.00;;;;;;;;5017909;28;45351;-83
2023/06/22 01:02:31;;;;;;;;;0.00;0.00;;;;;;;;5015982;28;45448;-82
2023/06/22 01:04:56;;;;;;;;;1.00;1.00;;;;;;;;4998441;28;47564;-83
2023/06/22 01:07:31;;;;;;;;;1.00;1.00;;;;;;;;5015879;28;45370;-83
2023/06/22 01:09:56;;;;;;;;;3.00;0.25;;;;;;;;5007890;28;45362;-83
2023/06/22 01:12:22;;;;;;;;;1.00;1.00;;;;;;;;4984357;28;45479;-83
2023/06/22 01:14:53;;;;;;;;;3.50;1.00;;;;;;;;4992426;28;46306;-83
2023/06/22 01:17:19;;;;;;;;;0.50;0.50;;;;;;;;4994736;28;45761;-83
2023/06/22 01:19:57;;;;;;;;;2.75;1.00;;;;;;;;4995851;28;45338;-82
2023/06/22 01:22:24;;;;;;;;;1.25;1.25;;;;;;;;4995908;28;45252;-83
2023/06/22 01:25:10;;;;;;;;;0.00;0.00;;;;;;;;4995766;28;46301;-83
2023/06/22 01:27:45;;;;;;;;;0.00;0.00;;;;;;;;4995074;28;45413;-82
2023/06/22 01:30:11;;;;;;;;;1.00;1.00;;;;;;;;4995962;28;45480;-82
2023/06/22 01:32:37;;;;;;;;;3.75;1.00;;;;;;;;4983623;28;45332;-84
2023/06/22 01:35:04;;;;;;;;;2.25;1.00;;;;;;;;4993591;28;46462;-83
2023/06/22 01:37:32;;;;;;;;;1.75;1.00;;;;;;;;4995391;28;45776;-84
2023/06/22 01:39:58;;;;;;;;;1.75;1.75;;;;;;;;4995722;28;45312;-83
2023/06/22 01:42:24;;;;;;;;;2.00;1.00;;;;;;;;4966171;28;45458;-83
2023/06/22 01:44:49;;;;;;;;;1.00;1.00;;;;;;;;4976368;28;46240;-82
2023/06/22 01:47:15;;;;;;;;;1.75;1.00;;;;;;;;4987751;28;45440;-85
2023/06/22 01:49:41;;;;;;;;;0.50;0.50;;;;;;;;4980641;28;45500;-83
2023/06/22 01:52:06;;;;;;;;;0.00;0.00;;;;;;;;4976541;28;45294;-83
2023/06/22 01:54:31;;;;;;;;;0.50;0.50;;;;;;;;4984922;28;47412;-82
2023/06/22 01:56:57;;;;;;;;;5.33;1.00;;;;;;;;4995632;28;45310;-82
2023/06/22 01:59:34;;;;;;;;;1.00;1.00;;;;;;;;4986823;28;45710;-83
2023/06/22 02:02:02;;;;;;;;;1.00;1.00;;;;;;;;4958427;28;45450;-82
2023/06/22 02:04:30;;;;;;;;;1.00;1.00;;;;;;;;4976051;28;46947;-82
2023/06/22 02:06:56;;;;;;;;;1.00;1.00;;;;;;;;4976129;28;45706;-84
2023/06/22 02:09:22;;;;;;;;;0.75;0.75;;;;;;;;4983411;28;45313;-83
2023/06/22 02:11:48;;;;;;;;;2.25;1.00;;;;;;;;5015160;28;45525;-82
2023/06/22 02:14:14;;;;;;;;;1.25;1.00;;;;;;;;5012816;28;45692;-84
2023/06/22 02:16:41;;;;;;;;;2.75;1.75;;;;;;;;5015026;28;45417;-81
2023/06/22 02:19:06;;;;;;;;;2.00;1.00;;;;;;;;5009194;28;45359;-83
2023/06/22 02:21:32;;;;;;;;;2.00;1.00;;;;;;;;5004736;28;45512;-83
2023/06/22 02:23:57;;;;;;;;;3.00;1.50;;;;;;;;4995136;28;46298;-83
2023/06/22 02:26:23;;;;;;;;;4.00;0.75;;;;;;;;4998216;28;45303;-83
2023/06/22 02:28:49;;;;;;;;;2.00;1.25;;;;;;;;5011114;28;45527;-82
2023/06/22 02:31:14;;;;;;;;;2.50;1.00;;;;;;;;5014512;28;45296;-83
2023/06/22 02:33:40;;;;;;;;;0.67;0.67;;;;;;;;5014699;28;45515;-83
2023/06/22 02:36:08;;;;;;;;;1.75;1.75;;;;;;;;5014081;28;45381;-81
2023/06/22 02:38:34;;;;;;;;;1.00;0.50;;;;;;;;5014670;28;45479;-84
2023/06/22 02:40:59;;;;;;;;;0.50;0.25;;;;;;;;5002316;28;45311;-82
2023/06/22 02:43:25;;;;;;;;;1.00;1.00;;;;;;;;4985976;28;46121;-82
2023/06/22 02:45:50;;;;;;;;;2.00;1.00;;;;;;;;5004170;28;45281;-84
2023/06/22 02:48:15;;;;;;;;;0.25;0.25;;;;;;;;5015528;28;45371;-82
2023/06/22 02:50:40;;;;;;;;;2.00;2.00;;;;;;;;5013835;28;45350;-82
2023/06/22 02:53:05;;;;;;;;;1.67;1.00;;;;;;;;4986348;28;47560;-82
2023/06/22 02:55:31;;;;;;;;;2.67;2.00;;;;;;;;4998703;28;45309;-81
2023/06/22 02:57:59;;;;;;;;;1.25;1.25;;;;;;;;4998461;28;45507;-82
2023/06/22 03:00:30;;;;;;;;;3.00;1.00;;;;;;;;5011330;28;45342;-82
2023/06/22 03:02:55;;;;;;;;;4.00;1.00;;;;;;;;5018058;28;47247;-83
2023/06/22 03:05:20;;;;;;;;;2.00;1.00;;;;;;;;5017650;28;45447;-82
2023/06/22 03:07:45;;;;;;;;;1.33;1.33;;;;;;;;5000593;28;45358;-82
2023/06/22 03:10:11;;;;;;;;;2.00;1.75;;;;;;;;5017655;28;45601;-82
2023/06/22 03:12:40;;;;;;;;;1.75;0.50;;;;;;;;4995078;28;47375;-82
2023/06/22 03:15:06;;;;;;;;;2.50;0.75;;;;;;;;5033055;28;45400;-82
2023/06/22 03:17:31;;;;;;;;;2.75;0.75;;;;;;;;5033925;28;45273;-82
2023/06/22 03:19:56;;;;;;;;;1.00;1.00;;;;;;;;5013747;28;45354;-82
2023/06/22 03:22:22;;;;;;;;;1.67;1.67;;;;;;;;5015686;28;45728;-82
2023/06/22 03:24:47;;;;;;;;;2.00;1.00;;;;;;;;5018097;28;45380;-83
2023/06/22 03:27:12;;;;;;;;;1.67;1.00;;;;;;;;5000048;28;45357;-82
2023/06/22 03:29:38;;;;;;;;;5.25;1.75;;;;;;;;5017790;28;45392;-83
2023/06/22 03:32:05;;;;;;;;;3.33;1.00;;;;;;;;5015912;28;46533;-83
2023/06/22 03:34:33;;;;;;;;;4.00;2.00;;;;;;;;5017284;28;45267;-83
2023/06/22 03:36:58;;;;;;;;;2.00;1.00;;;;;;;;5017941;28;45598;-83
2023/06/22 03:39:23;;;;;;;;;1.00;1.00;;;;;;;;5017962;28;45342;-82
2023/06/22 03:41:48;;;;;;;;;1.00;1.00;;;;;;;;5017546;28;45378;-82
2023/06/22 03:44:14;;;;;;;;;0.67;0.67;;;;;;;;5000054;28;46183;-82
2023/06/22 03:46:39;;;;;;;;;1.67;1.67;;;;;;;;4999550;28;45331;-82
2023/06/22 03:49:04;;;;;;;;;1.00;1.00;;;;;;;;5017495;28;45452;-82
2023/06/22 03:51:30;;;;;;;;;1.67;1.67;;;;;;;;5017206;28;47532;-83
2023/06/22 03:53:55;;;;;;;;;1.50;1.00;;;;;;;;5017220;28;45776;-84
2023/06/22 03:56:21;;;;;;;;;2.00;2.00;;;;;;;;4999888;28;45330;-82
2023/06/22 03:58:46;;;;;;;;;4.67;0.67;;;;;;;;5016404;28;45485;-83
2023/06/22 04:01:11;;;;;;;;;2.67;1.33;;;;;;;;5017277;28;47172;-83
2023/06/22 04:03:37;;;;;;;;;1.00;1.00;;;;;;;;5017063;28;45442;-82
2023/06/22 04:06:02;;;;;;;;;1.25;1.25;;;;;;;;5017402;28;45518;-82
2023/06/22 04:08:27;;;;;;;;;3.00;1.00;;;;;;;;5017315;28;45401;-83
2023/06/22 04:10:52;;;;;;;;;5.00;1.67;;;;;;;;5017069;28;46026;-83
2023/06/22 04:13:17;;;;;;;;;1.67;1.67;;;;;;;;5017116;28;45372;-83
2023/06/22 04:15:42;;;;;;;;;4.00;2.00;;;;;;;;5017258;28;45381;-83
2023/06/22 04:18:08;;;;;;;;;2.00;2.00;;;;;;;;5016939;28;45279;-82
2023/06/22 04:20:33;;;;;;;;;3.00;2.00;;;;;;;;5017103;28;47285;-83
2023/06/22 04:22:58;;;;;;;;;1.00;0.00;;;;;;;;4999222;28;45350;-83
2023/06/22 04:25:23;;;;;;;;;6.33;3.00;;;;;;;;5017124;28;45354;-83
2023/06/22 04:27:49;;;;;;;;;2.00;2.00;;;;;;;;5017089;28;45349;-82
2023/06/22 04:30:17;;;;;;;;;3.00;3.00;;;;;;;;5016885;28;45279;-83
2023/06/22 04:32:43;;;;;;;;;1.75;1.75;;;;;;;;5016509;28;45395;-82
2023/06/22 04:35:09;;;;;;;;;3.25;1.75;;;;;;;;5017043;28;45421;-82
2023/06/22 04:37:34;;;;;;;;;2.75;1.75;;;;;;;;5017112;28;45381;-83
2023/06/22 04:39:59;;;;;;;;;3.33;2.00;;;;;;;;5016904;28;45476;-83
2023/06/22 04:42:26;;;;;;;;;0.67;0.67;;;;;;;;5002689;28;45328;-82
2023/06/22 04:44:51;;;;;;;;;4.00;2.00;;;;;;;;5016930;28;45443;-83
2023/06/22 04:47:16;;;;;;;;;3.00;3.00;;;;;;;;5019668;28;45515;-85
2023/06/22 04:49:43;;;;;;;;;8.00;2.00;;;;;;;;5016537;28;46230;-84
2023/06/22 04:52:09;;;;;;;;;4.00;2.75;;;;;;;;5016596;28;45821;-83
2023/06/22 04:54:35;;;;;;;;;2.50;2.50;;;;;;;;4999110;28;45375;-83
2023/06/22 04:57:00;;;;;;;;;3.00;2.50;;;;;;;;5016731;28;45386;-83
2023/06/22 04:59:28;;;;;;;;;3.75;2.00;;;;;;;;4998789;28;48439;-83
2023/06/22 05:01:53;;;;;;;;;2.00;2.00;;;;;;;;5016178;28;45399;-84
2023/06/22 05:04:19;;;;;;;;;6.00;3.75;;;;;;;;5016317;28;45468;-84
2023/06/22 05:06:45;;;;;;;;;2.50;2.00;;;;;;;;5016383;28;45482;-84
2023/06/22 05:09:11;;;;;;;;;5.00;3.00;;;;;;;;5015353;28;46690;-83
2023/06/22 05:11:37;;;;;;;;;5.00;2.25;;;;;;;;5016472;28;45477;-83
2023/06/22 05:14:02;;;;;;;;;5.00;3.00;;;;;;;;4998654;28;45971;-84
2023/06/22 05:31:01;;;;;;;;;;;;;;;;;;;;;
2023/06/22 05:33:45;;;;;;;;;3.50;1.75;;;;;;;;4953131;28;45354;-93
2023/06/22 05:36:17;;;;;;;;;4.00;3.00;;;;;;;;4955114;28;45313;-89
2023/06/22 05:41:45;;;;;;;;;6.50;5.00;;;;;;;;5128430;22;45309;-88
2023/06/22 05:44:27;;;;;;;;;7.25;4.00;;;;;;;;5037359;28;45328;-92
2023/06/22 05:46:55;;;;;;;;;8.75;6.00;;;;;;;;5020523;28;45512;-94
2023/06/22 05:49:33;;;;;;;;;;;;;;;;;;;;;
2023/06/22 05:52:02;;;;;;;;;6.00;5.50;;;;;;;;4993367;28;75554;-94
2023/06/22 05:54:47;;;;;;;;;4.50;3.50;;;;;;;;5003277;28;45168;-95
2023/06/22 06:00:37;;;;;;;;;;;;;;;;;;;;;
2023/06/22 06:03:06;;;;;;;;;6.25;5.50;;;;;;;;5002287;28;73955;-91
2023/06/22 06:05:39;;;;;;;;;7.25;7.25;;;;;;;;4997957;28;45361;-88
2023/06/22 06:08:10;;;;;;;;;6.00;5.25;;;;;;;;5013669;28;45468;-88
2023/06/22 06:10:43;;;;;;;;;6.00;5.50;;;;;;;;5015254;28;45552;-88
2023/06/22 06:13:09;;;;;;;;;8.25;5.00;;;;;;;;4994175;28;47009;-91
2023/06/22 06:15:34;;;;;;;;;6.25;6.25;;;;;;;;4994880;28;45443;-94
2023/06/22 06:18:00;;;;;;;;;7.25;6.00;;;;;;;;5005023;28;45445;-94
2023/06/22 06:20:28;;;;;;;;;9.00;7.50;;;;;;;;5002116;28;45373;-94
2023/06/22 06:23:07;;;;;;;;;;;;;;;;;;;;;
2023/06/22 06:25:32;;;;;;;;;8.50;6.00;;;;;;;;5012410;28;72378;-95
2023/06/22 06:27:58;;;;;;;;;8.50;7.75;;;;;;;;5013861;28;46436;-95
2023/06/22 06:30:42;;;;;;;;;;;;;;;;;;;;;
2023/06/22 06:36:33;;;;;;;;;10.00;8.00;;;;;;;;5010723;28;45474;-92
2023/06/22 06:39:12;;;;;;;;;;;;;;;;;;;;;
2023/06/22 06:41:37;;;;;;;;;10.00;8.00;;;;;;;;5020553;28;71233;-93
2023/06/22 06:44:03;;;;;;;;;10.25;7.75;;;;;;;;4998808;28;47885;-94
2023/06/22 06:46:28;;;;;;;;;11.50;8.25;;;;;;;;5007180;28;45490;-91
2023/06/22 06:48:53;;;;;;;;;13.67;9.00;;;;;;;;4996434;28;45683;-90
2023/06/22 06:51:18;;;;;;;;;8.00;6.33;;;;;;;;5000589;28;45447;-92
2023/06/22 06:53:44;;;;;;;;;9.33;8.67;;;;;;;;5007978;28;47348;-94
2023/06/22 06:56:10;;;;;;;;;12.67;9.00;;;;;;;;4993759;28;45290;-93
2023/06/22 06:58:36;;;;;;;;;11.25;9.50;;;;;;;;5012228;28;45339;-95
2023/06/22 07:01:02;;;;;;;;;12.75;10.00;;;;;;;;5017150;28;45373;-91
2023/06/22 07:03:32;;;;;;;;;10.75;8.00;;;;;;;;5013826;28;46578;-93
2023/06/22 07:05:57;;;;;;;;;11.50;8.00;;;;;;;;5015146;28;45897;-90
2023/06/22 07:08:22;;;;;;;;;12.33;9.00;;;;;;;;5011866;28;45423;-90
2023/06/22 07:10:50;;;;;;;;;14.00;10.33;;;;;;;;5011896;28;45595;-88
2023/06/22 07:13:15;;;;;;;;;15.25;11.25;;;;;;;;5014233;28;45823;-93
2023/06/22 07:15:43;;;;;;;;;11.50;10.50;;;;;;;;5000367;28;45418;-89
2023/06/22 07:19:10;;;;;;;;;14.25;11.25;;;;;;;;5016715;28;45287;-90
2023/06/22 07:21:19;;;;;;;;;13.25;12.25;;;;;;;;4999458;28;45453;-90
2023/06/22 07:23:46;;;;;;;;;12.00;8.50;;;;;;;;5018380;28;46701;-89
2023/06/22 07:26:12;;;;;;;;;12.50;11.75;;;;;;;;4995263;28;45872;-86
2023/06/22 07:28:40;;;;;;;;;15.50;11.50;;;;;;;;5011952;28;46758;-88
2023/06/22 07:34:11;;;;;;;;;15.25;11.75;;;;;;;;4932317;28;45478;-86
2023/06/22 07:36:39;;;;;;;;;11.50;10.00;;;;;;;;4930416;28;45821;-85
2023/06/22 07:39:05;;;;;;;;;18.50;12.50;;;;;;;;4930185;28;45281;-85
2023/06/22 07:41:30;;;;;;;;;18.00;13.33;;;;;;;;4929556;28;45539;-87
2023/06/22 07:43:56;;;;;;;;;20.25;12.00;;;;;;;;4910592;28;47447;-87
2023/06/22 07:46:21;;;;;;;;;14.33;11.00;;;;;;;;4927478;28;45518;-85
2023/06/22 07:48:46;;;;;;;;;12.25;11.75;;;;;;;;4934385;28;45463;-84
2023/06/22 07:51:14;;;;;;;;;15.33;14.00;;;;;;;;4931965;28;45516;-81
2023/06/22 07:53:40;;;;;;;;;30.00;21.50;;;;;;;;4922350;28;47277;-82
2023/06/22 07:56:07;;;;;;;;;18.00;12.75;;;;;;;;4920436;28;45798;-82
2023/06/22 07:58:32;;;;;;;;;18.75;13.00;;;;;;;;4929979;28;45547;-83
2023/06/22 08:00:58;;;;;;;;;15.25;11.75;;;;;;;;4923718;28;45644;-85
2023/06/22 08:03:23;;;;;;;;;16.00;12.67;;;;;;;;4918073;28;45492;-85
2023/06/22 08:05:48;;;;;;;;;17.00;15.67;;;;;;;;4927669;28;45591;-86
2023/06/22 08:08:14;;;;;;;;;13.75;11.00;;;;;;;;4931983;28;45479;-84
2023/06/22 08:10:41;;;;;;;;;17.25;13.25;;;;;;;;4944552;28;45536;-82
2023/06/22 08:13:07;;;;;;;;;13.00;10.75;;;;;;;;4994010;28;45626;-83
2023/06/22 08:15:32;;;;;;;;;17.00;13.00;;;;;;;;4993373;28;45962;-85
2023/06/22 08:17:58;;;;;;;;;15.00;11.33;;;;;;;;4982367;28;45545;-85
2023/06/22 08:20:24;;;;;;;;;19.75;11.75;;;;;;;;4984831;28;45379;-85
2023/06/22 08:42:47;;;;;;;;;11.75;11.00;;;;;;;;4922727;28;45569;-83
2023/06/22 08:45:12;;;;;;;;;12.75;12.00;;;;;;;;4977861;28;46635;-82
2023/06/22 08:47:38;;;;;;;;;19.75;14.50;;;;;;;;5003309;28;45884;-82
2023/06/22 08:50:04;;;;;;;;;17.00;12.00;;;;;;;;4987335;28;45467;-82
2023/06/22 08:52:29;;;;;;;;;15.50;11.00;;;;;;;;4993442;28;45476;-83
2023/06/22 08:54:54;;;;;;;;;13.33;11.33;;;;;;;;4975685;28;46284;-84
2023/06/22 08:57:20;;;;;;;;;15.75;11.00;;;;;;;;4990361;28;45719;-83
2023/06/22 08:59:45;;;;;;;;;12.00;10.00;;;;;;;;4983421;28;45422;-84
2023/06/22 09:02:11;;;;;;;;;14.00;10.00;;;;;;;;4995978;28;45463;-82
2023/06/22 09:04:36;;;;;;;;;13.33;11.00;;;;;;;;4997685;28;47415;-79
2023/06/22 09:07:02;;;;;;;;;13.67;10.67;;;;;;;;4990343;28;45800;-81
2023/06/22 09:09:27;;;;;;;;;16.25;13.25;;;;;;;;4990542;28;45418;-85
2023/06/22 09:11:52;;;;;;;;;11.25;10.75;;;;;;;;4992603;28;45501;-82
2023/06/22 09:14:17;;;;;;;;;16.00;11.00;;;;;;;;4992794;28;45486;-82
2023/06/22 09:16:43;;;;;;;;;13.00;10.00;;;;;;;;5004927;28;45818;-83
2023/06/22 09:19:08;;;;;;;;;15.00;11.00;;;;;;;;5009151;28;45331;-84
2023/06/22 09:21:33;;;;;;;;;14.75;11.75;;;;;;;;4993954;28;45332;-83
2023/06/22 09:23:58;;;;;;;;;12.33;11.00;;;;;;;;4984778;28;47370;-83
2023/06/22 09:26:24;;;;;;;;;12.00;9.00;;;;;;;;4992049;28;45501;-82
2023/06/22 09:28:49;;;;;;;;;18.75;9.50;;;;;;;;4993520;28;45828;-83
2023/06/22 09:31:16;;;;;;;;;12.75;8.25;;;;;;;;4984458;28;45486;-85
2023/06/22 09:33:42;;;;;;;;;12.00;10.00;;;;;;;;4993452;28;46500;-85
2023/06/22 09:36:07;;;;;;;;;2.00;0.00;;;;;;;;4994029;28;45308;-84
2023/06/22 09:38:38;;;;;;;;;10.00;8.00;;;;;;;;4977351;28;45447;-84
2023/06/22 09:41:04;;;;;;;;;11.75;8.50;;;;;;;;4979957;28;45426;-83
2023/06/22 09:43:29;;;;;;;;;9.25;8.75;;;;;;;;4982885;28;45426;-85
2023/06/22 09:45:54;;;;;;;;;10.75;9.00;;;;;;;;4968174;28;45647;-83
2023/06/22 09:48:20;;;;;;;;;13.67;8.00;;;;;;;;4982942;28;45619;-84
2023/06/22 09:51:05;;;;;;;;;10.00;7.50;;;;;;;;4979109;28;45465;-85
2023/06/22 09:53:30;;;;;;;;;10.00;7.50;;;;;;;;4970606;28;46571;-85
2023/06/22 09:55:57;;;;;;;;;7.33;6.67;;;;;;;;4975299;28;45448;-84
2023/06/22 09:58:22;;;;;;;;;9.25;8.75;;;;;;;;4973035;28;45388;-83
2023/06/22 10:00:47;;;;;;;;;10.50;8.00;;;;;;;;4975216;28;45379;-85
2023/06/22 10:03:12;;;;;;;;;14.00;9.67;;;;;;;;4979699;28;45927;-83
2023/06/22 10:05:38;;;;;;;;;13.67;8.67;;;;;;;;4976679;28;45708;-82
2023/06/22 10:08:03;;;;;;;;;10.33;8.67;;;;;;;;4974992;28;45314;-81
2023/06/22 10:10:28;;;;;;;;;9.75;8.00;;;;;;;;4972249;28;45409;-83
2023/06/22 10:12:57;;;;;;;;;8.67;8.00;;;;;;;;4974804;28;46455;-82
2023/06/22 10:15:22;;;;;;;;;7.50;7.25;;;;;;;;4976774;28;45307;-82
2023/06/22 10:17:47;;;;;;;;;11.00;8.67;;;;;;;;4977190;28;45418;-83
2023/06/22 10:20:13;;;;;;;;;6.25;6.00;;;;;;;;4971823;28;45420;-83
2023/06/22 10:22:43;;;;;;;;;10.50;7.00;;;;;;;;4974608;28;48496;-84
2023/06/22 10:25:09;;;;;;;;;8.75;8.00;;;;;;;;4973284;28;45476;-83
2023/06/22 10:27:34;;;;;;;;;10.75;7.25;;;;;;;;4980393;28;45511;-85
2023/06/22 10:30:07;;;;;;;;;9.33;7.00;;;;;;;;4976144;28;45524;-86
2023/06/22 10:32:33;;;;;;;;;7.50;6.50;;;;;;;;4981668;28;46611;-85
2023/06/22 10:34:58;;;;;;;;;8.00;7.00;;;;;;;;4947368;28;45575;-85
2023/06/22 10:37:23;;;;;;;;;10.00;7.67;;;;;;;;4984361;28;45486;-84
2023/06/22 10:39:49;;;;;;;;;9.00;8.00;;;;;;;;4992418;28;45473;-83
2023/06/22 10:42:14;;;;;;;;;9.67;7.33;;;;;;;;4996995;28;46086;-83
2023/06/22 10:44:41;;;;;;;;;10.25;9.00;;;;;;;;4994463;28;45501;-85
2023/06/22 10:47:06;;;;;;;;;9.00;7.50;;;;;;;;4990695;28;45417;-87
2023/06/22 10:49:31;;;;;;;;;7.00;7.00;;;;;;;;4995230;28;45270;-83
2023/06/22 10:51:57;;;;;;;;;7.67;6.00;;;;;;;;4987668;28;46225;-83
2023/06/22 10:54:22;;;;;;;;;9.25;6.25;;;;;;;;4996640;28;45531;-85
2023/06/22 10:56:50;;;;;;;;;7.67;6.33;;;;;;;;4985689;28;45484;-86
2023/06/22 10:59:16;;;;;;;;;10.25;7.50;;;;;;;;4998683;28;45512;-84
2023/06/22 11:01:44;;;;;;;;;6.00;6.00;;;;;;;;4989637;28;45459;-84
2023/06/22 11:04:09;;;;;;;;;8.75;4.75;;;;;;;;4974330;28;45756;-88
2023/06/22 11:06:34;;;;;;;;;7.67;6.33;;;;;;;;4978404;28;45611;-87
2023/06/22 11:08:59;;;;;;;;;12.25;6.25;;;;;;;;4978471;28;45618;-87
2023/06/22 11:11:25;;;;;;;;;11.75;8.00;;;;;;;;4985299;28;46923;-87
2023/06/22 11:13:58;;;;;;;;;8.25;6.75;;;;;;;;5001282;28;45314;-88
2023/06/22 11:16:23;;;;;;;;;7.50;5.50;;;;;;;;4994260;28;45543;-87
2023/06/22 11:18:48;;;;;;;;;10.00;6.67;;;;;;;;4991873;28;45507;-88
2023/06/22 11:21:16;;;;;;;;;9.75;8.50;;;;;;;;4986766;28;48196;-88
2023/06/22 11:23:42;;;;;;;;;11.75;5.75;;;;;;;;4985732;28;46089;-90
2023/06/22 11:26:07;;;;;;;;;9.00;7.75;;;;;;;;5004410;28;45367;-88
2023/06/22 11:28:32;;;;;;;;;8.00;6.75;;;;;;;;4974024;28;45571;-87
2023/06/22 11:30:57;;;;;;;;;10.75;7.75;;;;;;;;4992114;28;46212;-88
2023/06/22 11:33:45;;;;;;;;;7.67;6.00;;;;;;;;4984137;28;45583;-90
2023/06/22 11:36:11;;;;;;;;;6.50;5.75;;;;;;;;5003380;28;45528;-84
2023/06/22 11:38:38;;;;;;;;;9.50;6.25;;;;;;;;5001267;28;45378;-87
2023/06/22 11:41:04;;;;;;;;;8.75;6.00;;;;;;;;4991890;28;46494;-88
2023/06/22 11:43:29;;;;;;;;;7.00;5.67;;;;;;;;5003337;28;45475;-87
2023/06/22 11:45:57;;;;;;;;;6.67;5.33;;;;;;;;4994228;28;45404;-92
2023/06/22 11:48:45;;;;;;;;;7.00;5.75;;;;;;;;4995990;28;45235;-94
2023/06/22 12:07:22;;;;;;;;;;;;;;;;;;;;;
2023/06/22 12:09:47;;;;;;;;;8.00;6.75;;;;;;;;4785984;29;68742;-87
2023/06/22 12:15:08;;;;;;;;;6.75;6.00;;;;;;;;4808260;29;46477;-90
2023/06/22 12:17:40;;;;;;;;;7.50;6.00;;;;;;;;4813965;29;45736;-89
2023/06/22 12:20:11;;;;;;;;;9.75;8.00;;;;;;;;4799909;29;45834;-89
2023/06/22 12:22:55;;;;;;;;;;;;;;;;;;;;;
2023/06/22 12:25:21;;;;;;;;;9.25;7.75;;;;;;;;4802016;29;75494;-94
2023/06/22 12:27:47;;;;;;;;;10.50;6.75;;;;;;;;4807911;29;45268;-91
2023/06/22 12:30:12;;;;;;;;;5.33;5.00;;;;;;;;4811971;29;45740;-95
2023/06/22 12:32:37;;;;;;;;;8.25;6.50;;;;;;;;4839174;29;45658;-96
2023/06/22 12:35:03;;;;;;;;;5.00;5.00;;;;;;;;4847547;29;47472;-95
2023/06/22 12:37:28;;;;;;;;;7.00;5.50;;;;;;;;4885734;29;45441;-92
2023/06/22 12:39:54;;;;;;;;;8.25;6.00;;;;;;;;4909211;28;45355;-95
2023/06/22 12:42:20;;;;;;;;;9.50;8.00;;;;;;;;4996622;28;45528;-93
2023/06/22 12:44:46;;;;;;;;;6.00;5.00;;;;;;;;4976869;28;47332;-96
2023/06/22 12:47:13;;;;;;;;;10.00;5.75;;;;;;;;4981943;28;45844;-96
2023/06/22 12:49:39;;;;;;;;;7.25;6.25;;;;;;;;5001605;28;45292;-96
2023/06/22 12:52:08;;;;;;;;;9.00;8.25;;;;;;;;4987647;28;45416;-95
2023/06/22 12:54:33;;;;;;;;;10.50;7.00;;;;;;;;5014566;28;46269;-96
2023/06/22 12:56:59;;;;;;;;;11.00;8.00;;;;;;;;4991418;28;45731;-96
2023/06/22 12:59:24;;;;;;;;;11.00;9.00;;;;;;;;5009945;28;44802;-92
2023/06/22 13:01:52;;;;;;;;;10.33;8.33;;;;;;;;5004855;28;45305;-96
2023/06/22 13:04:24;;;;;;;;;10.25;7.50;;;;;;;;5012866;28;45254;-95
2023/06/22 13:12:47;;;;;;;;;10.50;9.75;;;;;;;;5640020;22;46013;-96
2023/06/22 13:17:47;;;;;;;;;16.00;10.00;;;;;;;;6057723;22;46281;-96
2023/06/22 13:20:13;;;;;;;;;13.67;10.00;;;;;;;;5015121;28;45421;-96
2023/06/22 13:22:48;;;;;;;;;10.00;7.00;;;;;;;;5020940;28;45398;-96
2023/06/22 13:25:16;;;;;;;;;14.75;10.75;;;;;;;;5034788;28;45446;-96
2023/06/22 13:27:44;;;;;;;;;10.00;10.00;;;;;;;;5023725;28;45034;-96
2023/06/22 13:30:09;;;;;;;;;10.75;8.00;;;;;;;;5034873;28;44791;-96
2023/06/22 13:32:37;;;;;;;;;12.00;9.00;;;;;;;;5024020;28;44848;-96
2023/06/22 13:35:03;;;;;;;;;8.25;6.00;;;;;;;;5018862;28;46982;-96
2023/06/22 13:37:28;;;;;;;;;12.00;7.75;;;;;;;;5026746;28;44798;-95
2023/06/22 13:40:04;;;;;;;;;10.50;7.50;;;;;;;;5011879;28;45430;-96
2023/06/22 13:42:30;;;;;;;;;10.50;7.75;;;;;;;;5021073;28;45418;-96
2023/06/22 13:44:55;;;;;;;;;10.25;7.75;;;;;;;;5019931;28;45726;-96
2023/06/22 13:47:31;;;;;;;;;;;;;;;;;;;;;
2023/06/22 13:50:06;;;;;;;;;10.50;8.00;;;;;;;;5018716;28;68909;-96
2023/06/22 13:52:34;;;;;;;;;6.50;6.50;;;;;;;;5019886;28;45326;-96
2023/06/22 13:54:59;;;;;;;;;8.00;5.00;;;;;;;;5015756;28;45436;-96
2023/06/22 13:57:27;;;;;;;;;9.25;6.00;;;;;;;;5011618;28;45544;-96
2023/06/22 13:59:52;;;;;;;;;10.75;6.00;;;;;;;;5006254;28;45345;-96
2023/06/22 14:02:29;;;;;;;;;9.75;8.00;;;;;;;;5019158;28;45614;-96
2023/06/22 14:10:47;;;;;;;;;5.75;4.75;;;;;;;;5214681;22;46582;-96
2023/06/22 14:13:12;;;;;;;;;6.25;5.00;;;;;;;;5049063;28;44956;-96
2023/06/22 14:15:42;;;;;;;;;5.75;4.25;;;;;;;;5035552;28;46076;-96
2023/06/22 14:18:22;;;;;;;;;7.75;5.00;;;;;;;;5041678;28;45250;-96
2023/06/22 14:20:50;;;;;;;;;1.00;0.00;;;;;;;;5040008;28;45663;-94
2023/06/22 14:23:15;;;;;;;;;4.00;4.00;;;;;;;;5033249;28;45447;-93
2023/06/22 14:25:43;;;;;;;;;5.50;4.00;;;;;;;;5029352;28;45784;-94
2023/06/22 14:28:16;;;;;;;;;3.75;3.00;;;;;;;;5006971;28;45723;-94
2023/06/22 14:31:06;;;;;;;;;3.50;3.00;;;;;;;;5030828;28;45484;-95
2023/06/22 14:33:34;;;;;;;;;5.00;2.75;;;;;;;;5027216;28;45223;-95
2023/06/22 14:36:01;;;;;;;;;4.50;3.00;;;;;;;;5015753;28;48197;-96
2023/06/22 14:38:27;;;;;;;;;5.75;4.50;;;;;;;;5031828;28;45700;-95
2023/06/22 14:40:55;;;;;;;;;2.75;2.75;;;;;;;;5027595;28;45464;-95
2023/06/22 14:43:22;;;;;;;;;3.00;2.50;;;;;;;;5034905;28;45247;-96
2023/06/22 14:45:48;;;;;;;;;2.25;2.00;;;;;;;;5018705;28;47237;-94
2023/06/22 14:48:20;;;;;;;;;3.50;2.00;;;;;;;;5031626;28;45539;-94
2023/06/22 14:50:57;;;;;;;;;3.00;3.00;;;;;;;;5040964;28;45381;-96
2023/06/22 14:53:23;;;;;;;;;6.50;2.00;;;;;;;;5013240;28;45510;-95
2023/06/22 14:56:01;;;;;;;;;;;;;;;;;;;;;
2023/06/22 14:59:08;;;;;;;;;;;;;;;;;;;;;
2023/06/22 15:01:36;;;;;;;;;5.50;3.00;;;;;;;;4986174;28;68321;-96
2023/06/22 15:04:41;;;;;;;;;;;;;;;;;;;;;
2023/06/22 15:10:18;;;;;;;;;6.75;4.00;;;;;;;;4936719;28;45953;-91
2023/06/22 15:12:47;;;;;;;;;2.00;2.00;;;;;;;;4939730;28;45759;-91
2023/06/22 15:15:14;;;;;;;;;3.00;3.00;;;;;;;;4927057;28;45467;-89
2023/06/22 15:17:39;;;;;;;;;3.00;3.00;;;;;;;;4932692;28;45926;-89
2023/06/22 15:20:05;;;;;;;;;2.25;2.00;;;;;;;;4936956;28;46203;-91
2023/06/22 15:22:31;;;;;;;;;3.00;1.25;;;;;;;;4928872;28;45585;-91
2023/06/22 15:25:03;;;;;;;;;2.50;2.50;;;;;;;;4927898;28;45458;-91
2023/06/22 15:27:40;;;;;;;;;3.50;2.50;;;;;;;;4926853;28;47098;-89
2023/06/22 15:30:14;;;;;;;;;2.00;1.00;;;;;;;;4934386;28;45542;-90
2023/06/22 15:32:50;;;;;;;;;4.00;2.00;;;;;;;;4932501;28;45443;-90
2023/06/22 15:35:18;;;;;;;;;1.00;1.00;;;;;;;;4927996;28;45392;-90
2023/06/22 15:37:58;;;;;;;;;;;;;;;;;;;;;
2023/06/22 15:43:20;;;;;;;;;2.00;1.00;;;;;;;;4925569;28;45450;-91
2023/06/22 15:45:45;;;;;;;;;3.00;1.00;;;;;;;;4914831;28;45490;-89
2023/06/22 15:48:10;;;;;;;;;1.00;1.00;;;;;;;;5022748;28;45543;-90
2023/06/22 15:50:38;;;;;;;;;2.00;1.00;;;;;;;;5025149;28;45416;-90
2023/06/22 15:53:03;;;;;;;;;1.75;1.25;;;;;;;;5015999;28;45373;-87
2023/06/22 15:55:31;;;;;;;;;1.33;1.00;;;;;;;;5025029;28;45386;-88
2023/06/22 15:57:56;;;;;;;;;2.00;0.75;;;;;;;;5025857;28;46509;-87
2023/06/22 16:00:21;;;;;;;;;1.00;1.00;;;;;;;;5026140;28;46854;-85
2023/06/22 16:02:46;;;;;;;;;1.75;1.00;;;;;;;;5032498;28;45300;-87
2023/06/22 16:05:12;;;;;;;;;4.00;1.75;;;;;;;;5030862;28;45717;-88
2023/06/22 16:07:37;;;;;;;;;3.00;1.00;;;;;;;;5031889;28;46375;-86
2023/06/22 16:10:06;;;;;;;;;2.00;1.00;;;;;;;;5028512;28;45485;-94
2023/06/22 16:12:33;;;;;;;;;1.00;1.00;;;;;;;;5032267;28;45432;-89
2023/06/22 16:14:58;;;;;;;;;1.75;1.50;;;;;;;;5030549;28;45491;-91
2023/06/22 16:17:26;;;;;;;;;6.00;2.00;;;;;;;;5034880;28;46501;-91
2023/06/22 16:19:59;;;;;;;;;1.00;1.00;;;;;;;;5025138;28;45587;-94